createdAt,value
2023-02-27T00:00:24.424Z,69.48
2023-02-27T00:02:52.482Z,69.80
2023-02-27T00:05:20.186Z,69.60
2023-02-27T00:07:47.490Z,69.06
2023-02-27T00:10:14.947Z,69.41
2023-02-27T00:12:42.685Z,69.15
2023-02-27T00:15:13.057Z,68.90
2023-02-27T00:17:40.564Z,69.65
2023-02-27T00:20:11.284Z,69.25
2023-02-27T00:22:39.542Z,69.08
2023-02-27T00:25:07.986Z,69.09
2023-02-27T00:27:35.390Z,69.21
2023-02-27T00:30:05.253Z,69.53
2023-02-27T00:32:32.487Z,69.08
2023-02-27T00:34:59.733Z,69.40
2023-02-27T00:37:27.670Z,69.56
2023-02-27T00:39:54.855Z,69.52
2023-02-27T00:42:22.282Z,69.22
2023-02-27T00:44:49.471Z,69.41
2023-02-27T00:47:16.937Z,69.63
2023-02-27T00:49:44.221Z,69.15
2023-02-27T00:52:11.359Z,69.83
2023-02-27T00:54:38.597Z,69.45
2023-02-27T00:57:05.868Z,69.21
2023-02-27T00:59:33.135Z,69.56
2023-02-27T01:02:00.403Z,69.86
2023-02-27T01:04:27.697Z,70.22
2023-02-27T01:06:54.865Z,69.66
2023-02-27T01:09:22.145Z,69.85
2023-02-27T01:11:49.330Z,69.82
2023-02-27T01:14:16.883Z,70.17
2023-02-27T01:16:44.173Z,70.42
2023-02-27T01:19:11.310Z,70.40
2023-02-27T01:21:38.436Z,70.49
2023-02-27T01:24:05.791Z,70.36
2023-02-27T01:26:32.938Z,70.44
2023-02-27T01:29:00.115Z,70.16
2023-02-27T01:31:28.187Z,70.26
2023-02-27T01:33:55.604Z,70.26
2023-02-27T01:36:22.766Z,69.84
2023-02-27T01:38:49.983Z,69.99
2023-02-27T01:41:17.414Z,70.37
2023-02-27T01:43:59.661Z,71.09
2023-02-27T01:46:29.002Z,71.12
2023-02-27T01:49:16.449Z,71.44
2023-02-27T01:51:50.730Z,71.02
2023-02-27T01:54:20.520Z,71.25
2023-02-27T01:56:48.441Z,71.12
2023-02-27T01:59:16.172Z,71.13
2023-02-27T02:01:44.126Z,70.83
2023-02-27T02:04:26.547Z,71.82
2023-02-27T02:07:03.006Z,71.33
2023-02-27T02:09:31.217Z,71.50
2023-02-27T02:11:59.272Z,71.61
2023-02-27T02:14:26.698Z,71.37
2023-02-27T02:17:09.042Z,71.53
2023-02-27T02:20:07.468Z,71.66
2023-02-27T02:22:58.736Z,71.88
2023-02-27T02:25:44.671Z,72.04
2023-02-27T02:28:38.645Z,71.71
2023-02-27T02:31:43.367Z,72.37
2023-02-27T02:34:26.177Z,72.05
2023-02-27T02:37:02.254Z,72.62
2023-02-27T02:39:55.236Z,72.59
2023-02-27T02:42:27.204Z,72.87
2023-02-27T02:45:08.628Z,72.54
2023-02-27T02:47:58.499Z,72.93
2023-02-27T02:50:47.288Z,72.52
2023-02-27T02:53:38.030Z,72.76
2023-02-27T02:56:08.347Z,72.77
2023-02-27T02:58:48.015Z,72.70
2023-02-27T03:01:24.159Z,72.47
2023-02-27T03:03:57.264Z,72.80
2023-02-27T03:06:29.549Z,72.62
2023-02-27T03:09:02.193Z,72.50
2023-02-27T03:11:31.810Z,72.63
2023-02-27T03:14:08.353Z,72.59
2023-02-27T03:16:47.829Z,72.92
2023-02-27T03:19:22.244Z,73.03
2023-02-27T03:21:59.775Z,72.70
2023-02-27T03:24:38.050Z,72.93
2023-02-27T03:27:05.851Z,73.40
2023-02-27T03:29:43.991Z,73.32
2023-02-27T03:32:17.343Z,73.07
2023-02-27T03:34:45.005Z,73.37
2023-02-27T03:37:27.687Z,72.65
2023-02-27T03:40:25.973Z,73.22
2023-02-27T03:43:02.371Z,72.74
2023-02-27T03:45:45.556Z,72.91
2023-02-27T03:48:12.703Z,73.39
2023-02-27T03:50:39.876Z,73.35
2023-02-27T03:53:13.059Z,73.71
2023-02-27T03:55:44.357Z,73.42
2023-02-27T03:58:11.544Z,73.50
2023-02-27T04:00:38.792Z,73.33
2023-02-27T04:03:06.207Z,73.59
2023-02-27T04:05:36.204Z,73.85
2023-02-27T04:08:38.122Z,73.64
2023-02-27T04:11:14.362Z,73.45
2023-02-27T04:13:51.274Z,73.57
2023-02-27T04:16:45.873Z,73.34
2023-02-27T04:19:31.721Z,73.30
2023-02-27T04:22:27.412Z,73.51
2023-02-27T04:24:54.420Z,73.37
2023-02-27T04:27:27.466Z,73.31
2023-02-27T04:29:54.944Z,73.57
2023-02-27T04:32:36.031Z,73.77
2023-02-27T04:35:11.479Z,74.30
2023-02-27T04:37:52.186Z,74.32
2023-02-27T04:40:23.795Z,73.66
2023-02-27T04:42:54.942Z,73.95
2023-02-27T04:45:24.566Z,74.45
2023-02-27T04:47:54.587Z,74.20
2023-02-27T04:50:35.972Z,74.44
2023-02-27T04:53:09.153Z,73.93
2023-02-27T04:55:41.573Z,74.11
2023-02-27T04:58:18.979Z,74.07
2023-02-27T05:00:50.977Z,74.45
2023-02-27T05:03:23.990Z,74.05
2023-02-27T05:05:53.788Z,73.90
2023-02-27T05:08:22.245Z,73.96
2023-02-27T05:10:53.940Z,73.72
2023-02-27T05:13:26.447Z,73.91
2023-02-27T05:16:02.375Z,73.90
2023-02-27T05:18:29.666Z,74.01
2023-02-27T05:25:02.652Z,74.29
2023-02-27T05:27:33.972Z,74.33
2023-02-27T05:30:19.997Z,74.13
2023-02-27T05:32:58.734Z,74.07
2023-02-27T05:35:57.721Z,74.51
2023-02-27T05:38:40.577Z,74.43
2023-02-27T05:41:15.823Z,74.72
2023-02-27T05:44:15.776Z,74.52
2023-02-27T05:46:54.972Z,74.34
2023-02-27T05:49:37.452Z,74.39
2023-02-27T05:52:35.457Z,75.01
2023-02-27T05:55:25.200Z,74.99
2023-02-27T05:58:10.811Z,74.94
2023-02-27T06:00:52.057Z,75.82
2023-02-27T06:03:23.483Z,75.53
2023-02-27T06:05:53.333Z,75.27
2023-02-27T06:08:22.068Z,75.32
2023-02-27T06:10:52.315Z,75.17
2023-02-27T06:13:22.907Z,75.01
2023-02-27T06:15:50.917Z,75.55
2023-02-27T06:18:24.538Z,75.27
2023-02-27T06:20:55.289Z,75.64
2023-02-27T06:23:25.161Z,75.57
2023-02-27T06:25:54.679Z,75.40
2023-02-27T06:28:23.509Z,75.08
2023-02-27T06:30:55.177Z,75.50
2023-02-27T06:33:26.228Z,75.92
2023-02-27T06:36:07.827Z,75.61
2023-02-27T06:38:54.799Z,75.61
2023-02-27T06:44:51.578Z,75.70
2023-02-27T06:47:18.841Z,75.19
2023-02-27T06:49:46.064Z,75.68
2023-02-27T06:52:13.286Z,77.45
2023-02-27T06:54:40.554Z,77.30
2023-02-27T06:57:07.730Z,77.32
2023-02-27T06:59:35.146Z,76.78
2023-02-27T07:02:02.621Z,76.52
2023-02-27T07:04:29.984Z,76.53
2023-02-27T07:07:34.392Z,76.74
2023-02-27T07:09:46.253Z,76.62
2023-02-27T07:12:13.608Z,76.31
2023-02-27T07:14:40.968Z,76.82
2023-02-27T07:17:08.428Z,77.09
2023-02-27T07:19:37.113Z,77.29
2023-02-27T07:22:29.207Z,77.50
2023-02-27T07:24:56.501Z,77.66
2023-02-27T07:27:23.672Z,79.47
2023-02-27T07:29:50.964Z,78.47
2023-02-27T07:32:18.467Z,78.54
2023-02-27T07:34:45.828Z,78.12
2023-02-27T07:37:13.052Z,77.83
2023-02-27T07:39:40.249Z,78.40
2023-02-27T07:42:07.443Z,78.26
2023-02-27T07:44:35.142Z,78.30
2023-02-27T07:47:02.447Z,78.20
2023-02-27T07:49:29.683Z,79.42
2023-02-27T07:51:56.901Z,79.32
2023-02-27T07:54:24.210Z,79.35
2023-02-27T07:56:51.453Z,79.51
2023-02-27T07:59:18.917Z,80.95
2023-02-27T08:01:46.186Z,79.98
2023-02-27T08:04:13.413Z,79.96
2023-02-27T08:06:40.738Z,79.23
2023-02-27T08:09:08.339Z,79.76
2023-02-27T08:11:35.591Z,80.72
2023-02-27T08:14:03.299Z,80.77
2023-02-27T08:16:31.739Z,80.23
2023-02-27T08:19:00.468Z,80.16
2023-02-27T08:21:28.721Z,79.98
2023-02-27T08:23:56.054Z,80.38
2023-02-27T08:26:23.743Z,79.75
2023-02-27T08:28:51.182Z,82.43
2023-02-27T08:31:18.538Z,82.47
2023-02-27T08:33:45.698Z,81.38
2023-02-27T08:36:13.178Z,81.58
2023-02-27T08:38:40.337Z,81.70
2023-02-27T08:41:07.528Z,82.08
2023-02-27T08:43:34.782Z,81.47
2023-02-27T08:46:02.487Z,81.24
2023-02-27T08:48:29.727Z,81.18
2023-02-27T08:50:58.005Z,80.16
2023-02-27T08:53:25.854Z,80.33
2023-02-27T08:55:53.376Z,81.92
2023-02-27T08:58:20.984Z,80.98
2023-02-27T09:00:50.655Z,80.34
2023-02-27T09:03:17.988Z,80.78
2023-02-27T09:05:45.287Z,80.77
2023-02-27T09:08:12.566Z,81.00
2023-02-27T09:10:39.875Z,80.35
2023-02-27T09:13:08.507Z,80.85
2023-02-27T09:15:35.780Z,81.14
2023-02-27T09:18:05.470Z,80.99
2023-02-27T09:20:35.968Z,81.23
2023-02-27T09:23:03.928Z,81.24
2023-02-27T09:25:31.374Z,81.34
2023-02-27T09:27:58.728Z,81.08
2023-02-27T09:30:26.019Z,80.82
2023-02-27T09:32:53.241Z,80.44
2023-02-27T09:35:20.519Z,80.29
2023-02-27T09:37:49.517Z,80.45
2023-02-27T09:40:29.148Z,80.08
2023-02-27T09:43:10.201Z,79.96
2023-02-27T09:45:39.354Z,79.39
2023-02-27T09:48:26.950Z,79.38
2023-02-27T09:50:54.255Z,79.57
2023-02-27T09:53:32.455Z,78.89
2023-02-27T09:56:10.830Z,79.01
2023-02-27T09:58:44.943Z,79.11
2023-02-27T10:01:22.029Z,79.37
2023-02-27T10:03:58.515Z,79.22
2023-02-27T10:06:28.870Z,78.99
2023-02-27T10:09:14.469Z,78.64
2023-02-27T10:11:56.924Z,78.53
2023-02-27T10:14:50.606Z,77.56
2023-02-27T10:17:28.601Z,77.10
2023-02-27T10:20:00.481Z,76.69
2023-02-27T10:22:35.112Z,75.96
2023-02-27T10:25:37.618Z,75.18
2023-02-27T10:28:19.511Z,75.65
2023-02-27T10:31:18.176Z,74.81
2023-02-27T10:34:03.764Z,73.77
2023-02-27T10:36:37.541Z,73.14
2023-02-27T10:39:09.117Z,74.06
2023-02-27T10:41:43.736Z,73.84
2023-02-27T10:44:29.292Z,73.39
2023-02-27T10:47:01.054Z,73.28
2023-02-27T10:49:31.246Z,72.13
2023-02-27T10:52:18.887Z,71.21
2023-02-27T10:54:47.062Z,70.60
2023-02-27T10:57:41.267Z,70.57
2023-02-27T11:00:56.803Z,68.59
2023-02-27T11:03:31.851Z,70.04
2023-02-27T11:06:25.587Z,67.87
2023-02-27T11:09:13.005Z,66.25
2023-02-27T11:11:40.524Z,67.45
2023-02-27T11:14:47.213Z,67.32
2023-02-27T11:17:25.100Z,67.15
2023-02-27T11:19:52.394Z,66.92
2023-02-27T11:22:28.248Z,66.71
2023-02-27T11:25:20.598Z,66.56
2023-02-27T11:27:55.053Z,65.83
2023-02-27T11:30:32.132Z,65.39
2023-02-27T11:33:13.673Z,60.92
2023-02-27T11:35:57.263Z,61.91
2023-02-27T11:38:36.695Z,65.06
2023-02-27T11:41:13.429Z,62.42
2023-02-27T11:43:59.985Z,63.16
2023-02-27T11:47:09.098Z,63.79
2023-02-27T11:50:04.542Z,63.93
2023-02-27T11:52:58.160Z,62.18
2023-02-27T11:55:28.674Z,62.65
2023-02-27T11:58:05.897Z,60.68
2023-02-27T12:00:46.804Z,61.74
2023-02-27T12:03:32.034Z,63.98
2023-02-27T12:06:04.919Z,63.08
2023-02-27T12:08:42.848Z,63.86
2023-02-27T12:11:14.694Z,62.68
2023-02-27T12:13:46.273Z,61.66
2023-02-27T12:16:23.124Z,61.34
2023-02-27T12:19:03.241Z,62.85
2023-02-27T12:22:02.209Z,65.32
2023-02-27T12:24:47.734Z,65.00
2023-02-27T12:27:33.456Z,65.79
2023-02-27T12:30:44.307Z,64.97
2023-02-27T12:33:42.498Z,65.08
2023-02-27T12:36:11.418Z,60.04
2023-02-27T12:38:39.065Z,52.53
2023-02-27T12:41:12.175Z,62.38
2023-02-27T12:43:51.328Z,65.72
2023-02-27T12:46:41.102Z,63.23
2023-02-27T12:49:31.668Z,62.37
2023-02-27T12:52:38.047Z,58.17
2023-02-27T12:55:11.055Z,61.40
2023-02-27T12:58:11.743Z,62.37
2023-02-27T13:00:55.128Z,62.65
2023-02-27T13:03:34.543Z,61.91
2023-02-27T13:06:14.397Z,62.40
2023-02-27T13:09:22.185Z,64.23
2023-02-27T13:12:23.506Z,65.30
2023-02-27T13:15:12.577Z,55.07
2023-02-27T13:17:47.516Z,64.37
2023-02-27T13:20:30.263Z,58.78
2023-02-27T13:23:32.055Z,61.96
2023-02-27T13:26:01.044Z,64.28
2023-02-27T13:28:29.301Z,61.05
2023-02-27T13:31:20.661Z,61.79
2023-02-27T13:33:48.817Z,61.64
2023-02-27T13:36:24.193Z,62.66
2023-02-27T13:38:53.706Z,62.01
2023-02-27T13:41:20.851Z,61.61
2023-02-27T13:43:53.303Z,57.66
2023-02-27T13:46:30.447Z,59.48
2023-02-27T13:49:20.057Z,48.74
2023-02-27T13:51:56.590Z,45.40
2023-02-27T13:54:29.556Z,48.65
2023-02-27T13:56:59.487Z,41.24
2023-02-27T13:59:37.562Z,46.71
2023-02-27T14:02:07.068Z,47.47
2023-02-27T14:04:37.052Z,44.27
2023-02-27T14:07:10.820Z,41.94
2023-02-27T14:09:40.606Z,44.90
2023-02-27T14:12:28.901Z,43.30
2023-02-27T14:14:59.597Z,46.09
2023-02-27T14:17:36.561Z,48.71
2023-02-27T14:20:06.582Z,45.67
2023-02-27T14:23:11.236Z,49.56
2023-02-27T14:25:41.204Z,51.69
2023-02-27T14:28:35.943Z,52.66
2023-02-27T14:31:44.833Z,53.16
2023-02-27T14:34:15.871Z,52.35
2023-02-27T14:36:51.449Z,56.42
2023-02-27T14:39:35.881Z,56.52
2023-02-27T14:42:36.924Z,57.73
2023-02-27T14:45:04.849Z,57.33
2023-02-27T14:47:38.394Z,55.26
2023-02-27T14:50:08.445Z,54.46
2023-02-27T14:52:43.236Z,56.68
2023-02-27T14:55:18.016Z,51.24
2023-02-27T14:58:01.077Z,57.57
2023-02-27T15:00:40.311Z,59.33
2023-02-27T15:03:22.276Z,57.08
2023-02-27T15:05:51.790Z,62.09
2023-02-27T15:08:22.336Z,61.95
2023-02-27T15:10:51.175Z,62.64
2023-02-27T15:13:28.560Z,63.09
2023-02-27T15:16:21.195Z,59.22
2023-02-27T15:18:50.845Z,61.84
2023-02-27T15:21:21.557Z,58.36
2023-02-27T15:24:03.740Z,61.61
2023-02-27T15:26:37.097Z,61.81
2023-02-27T15:29:05.694Z,59.86
2023-02-27T15:31:33.074Z,61.12
2023-02-27T15:34:02.143Z,62.98
2023-02-27T15:36:34.004Z,63.05
2023-02-27T15:39:17.473Z,61.45
2023-02-27T15:41:48.484Z,63.59
2023-02-27T15:44:25.023Z,63.48
2023-02-27T15:46:52.989Z,61.42
2023-02-27T15:49:21.973Z,61.91
2023-02-27T15:51:58.405Z,62.67
2023-02-27T15:54:25.584Z,60.08
2023-02-27T15:56:53.733Z,62.67
2023-02-27T15:59:20.888Z,63.02
2023-02-27T16:01:49.740Z,62.90
2023-02-27T16:04:23.463Z,62.24
2023-02-27T16:06:58.538Z,62.77
2023-02-27T16:09:30.390Z,60.36
2023-02-27T16:12:39.673Z,61.57
2023-02-27T16:15:34.607Z,62.67
2023-02-27T16:18:07.818Z,58.93
2023-02-27T16:20:45.024Z,60.27
2023-02-27T16:23:22.061Z,62.77
2023-02-27T16:26:43.030Z,63.22
2023-02-27T16:29:21.663Z,63.48
2023-02-27T16:31:51.886Z,63.52
2023-02-27T16:34:42.747Z,63.86
2023-02-27T16:37:27.674Z,62.88
2023-02-27T16:39:54.835Z,63.46
2023-02-27T16:42:22.124Z,63.10
2023-02-27T16:44:50.335Z,62.55
2023-02-27T16:47:17.537Z,62.87
2023-02-27T16:49:46.300Z,63.28
2023-02-27T16:52:13.555Z,62.72
2023-02-27T16:54:40.699Z,63.04
2023-02-27T16:57:09.079Z,63.44
2023-02-27T16:59:40.382Z,62.44
2023-02-27T17:02:13.055Z,62.44
2023-02-27T17:04:43.903Z,62.68
2023-02-27T17:07:15.746Z,62.76
2023-02-27T17:09:44.152Z,63.03
2023-02-27T17:12:11.645Z,62.41
2023-02-27T17:14:38.901Z,61.99
2023-02-27T17:17:06.686Z,62.53
2023-02-27T17:19:33.993Z,62.62
2023-02-27T17:22:01.116Z,62.81
2023-02-27T17:24:28.305Z,63.11
2023-02-27T17:26:55.859Z,62.86
2023-02-27T17:29:23.859Z,61.97
2023-02-27T17:31:51.091Z,62.93
2023-02-27T17:34:18.463Z,63.09
2023-02-27T17:36:45.642Z,62.85
2023-02-27T17:39:14.173Z,63.08
2023-02-27T17:41:43.665Z,62.16
2023-02-27T17:44:11.691Z,62.87
2023-02-27T17:46:39.512Z,62.79
2023-02-27T17:49:06.862Z,62.71
2023-02-27T17:51:34.028Z,63.08
2023-02-27T17:54:05.322Z,62.02
2023-02-27T17:56:32.451Z,61.97
2023-02-27T17:58:59.696Z,62.55
2023-02-27T18:01:27.822Z,63.43
2023-02-27T18:03:55.176Z,61.62
2023-02-27T18:06:23.126Z,63.01
2023-02-27T18:08:50.355Z,63.20
2023-02-27T18:11:19.778Z,63.58
2023-02-27T18:13:47.873Z,63.37
2023-02-27T18:16:15.324Z,63.26
2023-02-27T18:18:43.126Z,63.36
2023-02-27T18:21:16.100Z,62.94
2023-02-27T18:23:44.000Z,62.95
2023-02-27T18:26:28.402Z,63.39
2023-02-27T18:29:02.128Z,63.58
2023-02-27T18:31:32.506Z,63.87
2023-02-27T18:34:00.379Z,63.77
2023-02-27T18:36:29.320Z,62.97
2023-02-27T18:38:57.369Z,63.44
2023-02-27T18:41:24.505Z,63.60
2023-02-27T18:43:51.922Z,63.69
2023-02-27T18:46:19.583Z,63.59
2023-02-27T18:48:47.152Z,63.10
2023-02-27T18:51:15.635Z,63.27
2023-02-27T18:53:45.758Z,63.63
2023-02-27T18:56:14.611Z,63.31
2023-02-27T18:58:42.448Z,63.17
2023-02-27T19:01:23.685Z,62.96
2023-02-27T19:03:51.209Z,63.26
2023-02-27T19:06:18.376Z,63.23
2023-02-27T19:08:46.121Z,62.62
2023-02-27T19:11:33.032Z,62.92
2023-02-27T19:14:04.730Z,63.33
2023-02-27T19:16:32.428Z,63.35
2023-02-27T19:19:01.155Z,63.32
2023-02-27T19:21:28.975Z,63.56
2023-02-27T19:23:56.277Z,63.68
2023-02-27T19:26:24.317Z,63.41
2023-02-27T19:28:55.167Z,62.68
2023-02-27T19:31:24.116Z,63.23
2023-02-27T19:33:51.435Z,63.49
2023-02-27T19:36:20.784Z,63.27
2023-02-27T19:38:48.181Z,63.26
2023-02-27T19:41:18.943Z,63.82
2023-02-27T19:43:46.668Z,63.49
2023-02-27T19:46:19.280Z,63.44
2023-02-27T19:48:46.787Z,63.28
2023-02-27T19:51:14.826Z,63.40
2023-02-27T19:53:45.231Z,63.65
2023-02-27T19:56:15.473Z,64.11
2023-02-27T19:58:42.774Z,64.12
2023-02-27T20:01:10.132Z,63.74
2023-02-27T20:03:38.074Z,63.58
2023-02-27T20:06:05.762Z,63.84
2023-02-27T20:08:33.652Z,63.45
2023-02-27T20:11:03.384Z,63.50
2023-02-27T20:13:31.246Z,63.86
2023-02-27T20:16:00.646Z,63.76
2023-02-27T20:18:29.886Z,63.29
2023-02-27T20:21:04.417Z,63.93
2023-02-27T20:23:32.822Z,63.71
2023-02-27T20:26:00.366Z,63.68
2023-02-27T20:28:31.779Z,63.65
2023-02-27T20:30:58.893Z,63.69
2023-02-27T20:33:26.062Z,63.22
2023-02-27T20:35:53.179Z,63.73
2023-02-27T20:38:22.587Z,63.82
2023-02-27T20:40:49.733Z,64.25
2023-02-27T20:43:16.847Z,64.12
2023-02-27T20:45:43.941Z,64.38
2023-02-27T20:48:11.090Z,64.24
2023-02-27T20:50:38.316Z,64.14
2023-02-27T20:53:05.466Z,64.01
2023-02-27T20:55:32.681Z,64.18
2023-02-27T20:57:59.929Z,63.93
2023-02-27T21:00:27.727Z,64.15
2023-02-27T21:02:54.810Z,63.87
2023-02-27T21:05:22.488Z,63.95
2023-02-27T21:07:50.614Z,64.11
2023-02-27T21:10:18.090Z,64.18
2023-02-27T21:12:45.217Z,64.30
2023-02-27T21:15:12.802Z,64.49
2023-02-27T21:17:40.093Z,64.61
2023-02-27T21:20:08.348Z,64.39
2023-02-27T21:22:35.525Z,64.44
2023-02-27T21:25:02.772Z,64.71
2023-02-27T21:27:30.102Z,64.76
2023-02-27T21:29:57.237Z,64.71
2023-02-27T21:32:24.369Z,64.52
2023-02-27T21:34:51.701Z,64.83
2023-02-27T21:37:19.337Z,64.76
2023-02-27T21:39:52.360Z,64.82
2023-02-27T21:42:19.617Z,64.49
2023-02-27T21:44:46.756Z,65.03
2023-02-27T21:47:13.910Z,64.97
2023-02-27T21:49:41.088Z,65.11
2023-02-27T21:52:08.876Z,64.86
2023-02-27T21:54:36.066Z,65.32
2023-02-27T21:57:03.366Z,65.27
2023-02-27T21:59:30.960Z,65.05
2023-02-27T22:01:58.407Z,65.70
2023-02-27T22:04:25.794Z,65.83
2023-02-27T22:06:53.124Z,65.94
2023-02-27T22:09:20.531Z,65.71
2023-02-27T22:11:48.235Z,65.55
2023-02-27T22:14:15.456Z,65.86
2023-02-27T22:16:42.859Z,65.97
2023-02-27T22:19:12.320Z,65.73
2023-02-27T22:21:39.790Z,65.62
2023-02-27T22:24:07.496Z,66.20
2023-02-27T22:26:34.921Z,66.05
2023-02-27T22:29:02.180Z,66.52
2023-02-27T22:31:32.279Z,66.53
2023-02-27T22:34:04.578Z,66.54
2023-02-27T22:36:32.740Z,66.54
2023-02-27T22:38:59.931Z,66.36
2023-02-27T22:41:32.698Z,66.51
2023-02-27T22:44:02.154Z,66.80
2023-02-27T22:46:36.488Z,66.92
2023-02-27T22:49:06.158Z,67.02
2023-02-27T22:51:33.375Z,66.94
2023-02-27T22:54:03.019Z,67.63
2023-02-27T22:56:30.664Z,67.21
2023-02-27T22:58:57.917Z,67.37
2023-02-27T23:01:28.716Z,67.60
2023-02-27T23:03:57.839Z,66.97
2023-02-27T23:06:30.881Z,67.18
2023-02-27T23:08:58.660Z,66.84
2023-02-27T23:11:26.250Z,67.17
2023-02-27T23:13:53.600Z,67.31
2023-02-27T23:16:20.930Z,67.15
2023-02-27T23:18:54.004Z,67.00
2023-02-27T23:21:24.142Z,67.11
2023-02-27T23:23:53.770Z,67.74
2023-02-27T23:26:21.310Z,67.84
2023-02-27T23:28:48.448Z,67.55
2023-02-27T23:31:15.923Z,67.67
2023-02-27T23:33:43.056Z,67.51
2023-02-27T23:36:10.663Z,68.01
2023-02-27T23:38:37.755Z,67.99
2023-02-27T23:41:09.446Z,67.81
2023-02-27T23:43:36.536Z,67.66
2023-02-27T23:46:14.672Z,67.40
2023-02-27T23:48:42.501Z,67.79
2023-02-27T23:51:11.064Z,67.60
2023-02-27T23:53:40.050Z,67.58
2023-02-27T23:56:21.629Z,67.80
2023-02-27T23:58:56.682Z,67.66
